Flight Track Log - Related Links

Times and Time Zones

All times are in EDT time to prevent confusion due to time zone crossing. See the MRA610 flight status page for this flight to view local times or setup timezone preferences in your user account.

Time Position Orientation Groundspeed Altitude Reporting Facility
EDT Latitude Longitude Course Direction KTS MPH feet Rate Location/Type
Sat 05:01:00 PM 43.3825 -84.1818 200° South  Level Estimated
Sat 05:02:00 PM 43.3558 -84.1931 197° South  Level FlightAware Approximate
Sat 05:03:00 PM 43.3290 -84.2044 197° South  Level FlightAware Approximate
Sat 05:04:00 PM 43.3041 -84.2218 206° Southwest  Level Estimated
Sat 05:05:00 PM 43.2787 -84.2378 205° Southwest  Level FlightAware Approximate
Sat 05:06:00 PM 43.2533 -84.2538 205° Southwest  Level FlightAware Approximate
Sat 05:07:00 PM 43.2279 -84.2698 205° Southwest  Level FlightAware Approximate
Sat 05:08:00 PM 43.2025 -84.2858 205° Southwest  Level FlightAware Approximate
Sat 05:09:00 PM 43.1771 -84.3017 205° Southwest  Level FlightAware Approximate
Sat 05:10:00 PM 43.1517 -84.3177 205° Southwest  Level FlightAware Approximate
Sat 05:11:00 PM 43.1262 -84.3336 205° Southwest  Level FlightAware Approximate
Sat 05:12:00 PM 43.1016 -84.3516 216° Southwest  Level Estimated
Sat 05:13:00 PM 43.0783 -84.3728 214° Southwest  Level FlightAware Approximate
Sat 05:14:00 PM 43.0535 -84.3905 206° Southwest  Level Estimated
Sat 05:15:00 PM 43.0287 -84.4081 207° Southwest  Level FlightAware Approximate
Sat 05:16:00 PM 43.0039 -84.4258 209° Southwest  Level Estimated
Sat 05:17:00 PM 42.9795 -84.4444 209° Southwest  Level FlightAware Approximate
Sat 05:18:00 PM 42.9547 -84.4619 204° Southwest  Level Estimated
Sat 05:19:00 PM 42.9292 -84.4778 205° Southwest  Level FlightAware Approximate
Sat 05:20:00 PM 42.9038 -84.4936 204° Southwest  Level FlightAware Approximate
Sat 05:21:00 PM 42.8784 -84.5094 204° Southwest  Level FlightAware Approximate
Sat 05:22:00 PM 42.8540 -84.5282 209° Southwest  Level Estimated
Sat 05:23:00 PM 42.8293 -84.5458 208° Southwest  Level FlightAware Approximate

Login

Don't have an account? Register now (free) for customized features, flight alerts, and more!